sensor_id;sensor_type;location;lat;lon;timestamp;P1;durP1;ratioP1;P2;durP2;ratioP2
76433;SDS011;65265;53.200;6.080;2022-12-26T00:03:06;47.03;;;13.57;;
76433;SDS011;65265;53.200;6.080;2022-12-26T00:07:57;33.53;;;10.95;;
76433;SDS011;65265;53.200;6.080;2022-12-26T00:12:49;42.90;;;11.48;;
76433;SDS011;65265;53.200;6.080;2022-12-26T00:17:41;31.50;;;9.02;;
76433;SDS011;65265;53.200;6.080;2022-12-26T00:22:33;46.60;;;12.00;;
76433;SDS011;65265;53.200;6.080;2022-12-26T00:27:24;33.45;;;10.38;;
76433;SDS011;65265;53.200;6.080;2022-12-26T00:32:16;40.28;;;11.15;;
76433;SDS011;65265;53.200;6.080;2022-12-26T00:37:09;44.50;;;13.30;;
76433;SDS011;65265;53.200;6.080;2022-12-26T00:42:01;45.35;;;12.82;;
76433;SDS011;65265;53.200;6.080;2022-12-26T00:46:52;54.22;;;14.43;;
76433;SDS011;65265;53.200;6.080;2022-12-26T00:51:44;47.65;;;13.65;;
76433;SDS011;65265;53.200;6.080;2022-12-26T00:56:37;48.83;;;12.05;;
76433;SDS011;65265;53.200;6.080;2022-12-26T01:01:28;45.75;;;11.80;;
76433;SDS011;65265;53.200;6.080;2022-12-26T01:06:21;44.60;;;10.57;;
76433;SDS011;65265;53.200;6.080;2022-12-26T01:11:13;54.63;;;14.90;;
76433;SDS011;65265;53.200;6.080;2022-12-26T01:16:28;55.58;;;12.38;;
76433;SDS011;65265;53.200;6.080;2022-12-26T01:26:11;54.03;;;12.38;;
76433;SDS011;65265;53.200;6.080;2022-12-26T01:31:02;57.47;;;11.73;;
76433;SDS011;65265;53.200;6.080;2022-12-26T01:35:56;52.13;;;12.57;;
76433;SDS011;65265;53.200;6.080;2022-12-26T01:40:48;41.45;;;9.88;;
76433;SDS011;65265;53.200;6.080;2022-12-26T01:46:00;48.63;;;12.07;;
76433;SDS011;65265;53.200;6.080;2022-12-26T01:50:52;45.42;;;13.38;;
76433;SDS011;65265;53.200;6.080;2022-12-26T01:55:48;48.15;;;11.82;;
76433;SDS011;65265;53.200;6.080;2022-12-26T02:00:44;45.72;;;12.55;;
76433;SDS011;65265;53.200;6.080;2022-12-26T02:05:36;35.08;;;11.35;;
76433;SDS011;65265;53.200;6.080;2022-12-26T02:10:28;40.05;;;11.98;;
76433;SDS011;65265;53.200;6.080;2022-12-26T02:15:25;31.50;;;10.30;;
76433;SDS011;65265;53.200;6.080;2022-12-26T02:20:18;28.40;;;9.63;;
76433;SDS011;65265;53.200;6.080;2022-12-26T02:25:16;31.92;;;11.88;;
76433;SDS011;65265;53.200;6.080;2022-12-26T02:30:27;32.78;;;11.40;;
76433;SDS011;65265;53.200;6.080;2022-12-26T02:35:26;29.67;;;10.65;;
76433;SDS011;65265;53.200;6.080;2022-12-26T02:40:30;34.03;;;10.80;;
76433;SDS011;65265;53.200;6.080;2022-12-26T02:45:32;36.38;;;13.95;;
76433;SDS011;65265;53.200;6.080;2022-12-26T02:50:58;35.47;;;14.18;;
76433;SDS011;65265;53.200;6.080;2022-12-26T02:56:15;38.67;;;15.77;;
76433;SDS011;65265;53.200;6.080;2022-12-26T03:01:31;47.72;;;17.05;;
76433;SDS011;65265;53.200;6.080;2022-12-26T03:06:50;50.50;;;16.33;;
76433;SDS011;65265;53.200;6.080;2022-12-26T03:12:03;42.53;;;17.10;;
76433;SDS011;65265;53.200;6.080;2022-12-26T03:17:39;46.17;;;21.00;;
76433;SDS011;65265;53.200;6.080;2022-12-26T03:22:36;47.60;;;17.58;;
76433;SDS011;65265;53.200;6.080;2022-12-26T03:27:31;45.88;;;18.17;;
76433;SDS011;65265;53.200;6.080;2022-12-26T03:32:23;42.75;;;17.92;;
76433;SDS011;65265;53.200;6.080;2022-12-26T03:42:31;43.08;;;16.38;;
76433;SDS011;65265;53.200;6.080;2022-12-26T03:47:50;38.42;;;16.33;;
76433;SDS011;65265;53.200;6.080;2022-12-26T03:53:22;38.38;;;15.38;;
76433;SDS011;65265;53.200;6.080;2022-12-26T03:58:38;39.70;;;15.80;;
76433;SDS011;65265;53.200;6.080;2022-12-26T04:03:50;40.40;;;16.08;;
76433;SDS011;65265;53.200;6.080;2022-12-26T04:09:09;43.00;;;17.00;;
76433;SDS011;65265;53.200;6.080;2022-12-26T04:14:24;36.20;;;15.27;;
76433;SDS011;65265;53.200;6.080;2022-12-26T04:19:58;37.50;;;14.65;;
76433;SDS011;65265;53.200;6.080;2022-12-26T04:24:56;33.88;;;14.75;;
76433;SDS011;65265;53.200;6.080;2022-12-26T04:30:10;32.50;;;12.93;;
76433;SDS011;65265;53.200;6.080;2022-12-26T04:35:19;34.53;;;14.25;;
76433;SDS011;65265;53.200;6.080;2022-12-26T04:40:36;30.52;;;12.95;;
76433;SDS011;65265;53.200;6.080;2022-12-26T04:45:48;36.35;;;13.50;;
76433;SDS011;65265;53.200;6.080;2022-12-26T04:50:47;31.50;;;14.55;;
76433;SDS011;65265;53.200;6.080;2022-12-26T04:55:41;35.42;;;16.15;;
76433;SDS011;65265;53.200;6.080;2022-12-26T05:00:33;37.33;;;16.30;;
76433;SDS011;65265;53.200;6.080;2022-12-26T05:05:25;27.80;;;14.05;;
76433;SDS011;65265;53.200;6.080;2022-12-26T05:10:34;30.27;;;15.00;;
76433;SDS011;65265;53.200;6.080;2022-12-26T05:15:27;30.80;;;13.82;;
76433;SDS011;65265;53.200;6.080;2022-12-26T05:20:38;29.67;;;14.35;;
76433;SDS011;65265;53.200;6.080;2022-12-26T05:25:56;24.67;;;12.25;;
76433;SDS011;65265;53.200;6.080;2022-12-26T05:31:07;31.08;;;14.05;;
76433;SDS011;65265;53.200;6.080;2022-12-26T05:35:59;27.13;;;13.20;;
76433;SDS011;65265;53.200;6.080;2022-12-26T05:40:51;32.28;;;14.82;;
76433;SDS011;65265;53.200;6.080;2022-12-26T05:45:42;28.63;;;14.52;;
76433;SDS011;65265;53.200;6.080;2022-12-26T05:50:35;30.83;;;14.68;;
76433;SDS011;65265;53.200;6.080;2022-12-26T06:00:18;30.90;;;14.60;;
76433;SDS011;65265;53.200;6.080;2022-12-26T06:05:10;26.52;;;14.32;;
76433;SDS011;65265;53.200;6.080;2022-12-26T06:10:03;29.67;;;13.93;;
76433;SDS011;65265;53.200;6.080;2022-12-26T06:14:56;26.17;;;13.73;;
76433;SDS011;65265;53.200;6.080;2022-12-26T06:19:47;24.17;;;12.35;;
76433;SDS011;65265;53.200;6.080;2022-12-26T06:24:39;18.83;;;10.40;;
76433;SDS011;65265;53.200;6.080;2022-12-26T06:29:32;20.13;;;10.38;;
76433;SDS011;65265;53.200;6.080;2022-12-26T06:34:23;19.77;;;9.25;;
76433;SDS011;65265;53.200;6.080;2022-12-26T06:39:16;16.70;;;10.75;;
76433;SDS011;65265;53.200;6.080;2022-12-26T06:44:08;19.25;;;11.15;;
76433;SDS011;65265;53.200;6.080;2022-12-26T06:49:01;17.15;;;10.77;;
76433;SDS011;65265;53.200;6.080;2022-12-26T06:53:55;19.10;;;9.30;;
76433;SDS011;65265;53.200;6.080;2022-12-26T06:58:51;20.45;;;9.70;;
76433;SDS011;65265;53.200;6.080;2022-12-26T07:03:43;17.40;;;9.65;;
76433;SDS011;65265;53.200;6.080;2022-12-26T07:08:37;14.75;;;8.07;;
76433;SDS011;65265;53.200;6.080;2022-12-26T07:18:20;16.95;;;8.02;;
76433;SDS011;65265;53.200;6.080;2022-12-26T07:23:11;13.93;;;7.20;;
76433;SDS011;65265;53.200;6.080;2022-12-26T07:28:04;12.05;;;7.35;;
76433;SDS011;65265;53.200;6.080;2022-12-26T07:32:56;10.35;;;5.60;;
76433;SDS011;65265;53.200;6.080;2022-12-26T07:37:47;8.52;;;4.90;;
76433;SDS011;65265;53.200;6.080;2022-12-26T07:42:38;13.68;;;5.03;;
76433;SDS011;65265;53.200;6.080;2022-12-26T07:47:31;10.20;;;5.00;;
76433;SDS011;65265;53.200;6.080;2022-12-26T07:52:23;9.75;;;5.18;;
76433;SDS011;65265;53.200;6.080;2022-12-26T07:57:14;8.60;;;4.97;;
76433;SDS011;65265;53.200;6.080;2022-12-26T08:02:07;9.10;;;4.60;;
76433;SDS011;65265;53.200;6.080;2022-12-26T08:07:01;10.20;;;5.32;;
76433;SDS011;65265;53.200;6.080;2022-12-26T08:16:44;8.90;;;3.88;;
76433;SDS011;65265;53.200;6.080;2022-12-26T08:21:36;9.20;;;4.30;;
76433;SDS011;65265;53.200;6.080;2022-12-26T08:26:29;8.32;;;3.50;;
76433;SDS011;65265;53.200;6.080;2022-12-26T08:31:21;9.50;;;3.75;;
76433;SDS011;65265;53.200;6.080;2022-12-26T08:36:13;10.07;;;4.60;;
76433;SDS011;65265;53.200;6.080;2022-12-26T08:41:08;7.32;;;3.65;;
76433;SDS011;65265;53.200;6.080;2022-12-26T08:46:02;9.98;;;4.38;;
76433;SDS011;65265;53.200;6.080;2022-12-26T08:50:55;12.75;;;5.13;;
76433;SDS011;65265;53.200;6.080;2022-12-26T08:55:48;11.32;;;4.90;;
76433;SDS011;65265;53.200;6.080;2022-12-26T09:00:39;10.98;;;5.80;;
76433;SDS011;65265;53.200;6.080;2022-12-26T09:05:32;7.38;;;5.72;;
76433;SDS011;65265;53.200;6.080;2022-12-26T09:10:23;9.13;;;4.75;;
76433;SDS011;65265;53.200;6.080;2022-12-26T09:15:15;9.38;;;4.53;;
76433;SDS011;65265;53.200;6.080;2022-12-26T09:20:07;10.40;;;4.95;;
76433;SDS011;65265;53.200;6.080;2022-12-26T09:25:02;5.13;;;1.77;;
76433;SDS011;65265;53.200;6.080;2022-12-26T09:29:54;7.95;;;1.20;;
76433;SDS011;65265;53.200;6.080;2022-12-26T09:34:47;10.10;;;1.05;;
76433;SDS011;65265;53.200;6.080;2022-12-26T09:39:38;11.20;;;2.20;;
76433;SDS011;65265;53.200;6.080;2022-12-26T09:44:34;5.82;;;1.17;;
76433;SDS011;65265;53.200;6.080;2022-12-26T09:49:35;8.23;;;1.13;;
76433;SDS011;65265;53.200;6.080;2022-12-26T09:54:31;8.00;;;1.50;;
76433;SDS011;65265;53.200;6.080;2022-12-26T09:59:24;8.00;;;1.23;;
76433;SDS011;65265;53.200;6.080;2022-12-26T10:04:22;8.60;;;1.30;;
76433;SDS011;65265;53.200;6.080;2022-12-26T10:14:48;13.57;;;1.25;;
76433;SDS011;65265;53.200;6.080;2022-12-26T10:19:50;11.43;;;2.42;;
76433;SDS011;65265;53.200;6.080;2022-12-26T10:24:49;7.72;;;0.90;;
76433;SDS011;65265;53.200;6.080;2022-12-26T10:29:44;7.20;;;0.95;;
76433;SDS011;65265;53.200;6.080;2022-12-26T10:34:39;6.55;;;0.65;;
76433;SDS011;65265;53.200;6.080;2022-12-26T10:39:35;10.43;;;1.00;;
76433;SDS011;65265;53.200;6.080;2022-12-26T10:44:33;11.80;;;1.13;;
76433;SDS011;65265;53.200;6.080;2022-12-26T10:49:24;4.07;;;0.95;;
76433;SDS011;65265;53.200;6.080;2022-12-26T10:54:17;9.05;;;1.10;;
76433;SDS011;65265;53.200;6.080;2022-12-26T10:59:12;4.43;;;0.73;;
76433;SDS011;65265;53.200;6.080;2022-12-26T11:04:13;4.82;;;0.63;;
76433;SDS011;65265;53.200;6.080;2022-12-26T11:09:06;7.13;;;1.55;;
76433;SDS011;65265;53.200;6.080;2022-12-26T11:14:25;8.18;;;0.60;;
76433;SDS011;65265;53.200;6.080;2022-12-26T11:19:27;5.60;;;0.82;;
76433;SDS011;65265;53.200;6.080;2022-12-26T11:24:19;5.22;;;0.60;;
76433;SDS011;65265;53.200;6.080;2022-12-26T11:29:11;8.02;;;1.05;;
76433;SDS011;65265;53.200;6.080;2022-12-26T11:39:01;7.07;;;0.95;;
76433;SDS011;65265;53.200;6.080;2022-12-26T11:43:55;4.90;;;0.73;;
76433;SDS011;65265;53.200;6.080;2022-12-26T11:48:49;7.30;;;0.57;;
76433;SDS011;65265;53.200;6.080;2022-12-26T11:53:42;9.20;;;0.55;;
76433;SDS011;65265;53.200;6.080;2022-12-26T11:58:34;6.40;;;0.55;;
76433;SDS011;65265;53.200;6.080;2022-12-26T12:03:27;7.28;;;1.98;;
76433;SDS011;65265;53.200;6.080;2022-12-26T12:08:27;8.20;;;1.17;;
76433;SDS011;65265;53.200;6.080;2022-12-26T12:18:45;5.20;;;1.25;;
76433;SDS011;65265;53.200;6.080;2022-12-26T12:23:46;8.70;;;1.25;;
76433;SDS011;65265;53.200;6.080;2022-12-26T12:34:21;9.13;;;1.67;;
76433;SDS011;65265;53.200;6.080;2022-12-26T12:39:18;6.32;;;1.20;;
76433;SDS011;65265;53.200;6.080;2022-12-26T12:44:17;7.47;;;0.90;;
76433;SDS011;65265;53.200;6.080;2022-12-26T12:49:20;9.02;;;0.90;;
76433;SDS011;65265;53.200;6.080;2022-12-26T12:54:31;12.52;;;1.30;;
76433;SDS011;65265;53.200;6.080;2022-12-26T12:59:43;10.20;;;1.00;;
76433;SDS011;65265;53.200;6.080;2022-12-26T13:04:54;6.55;;;0.85;;
76433;SDS011;65265;53.200;6.080;2022-12-26T13:09:53;5.93;;;0.85;;
76433;SDS011;65265;53.200;6.080;2022-12-26T13:14:48;4.75;;;0.68;;
76433;SDS011;65265;53.200;6.080;2022-12-26T13:19:45;6.82;;;1.45;;
76433;SDS011;65265;53.200;6.080;2022-12-26T13:24:44;5.78;;;1.20;;
76433;SDS011;65265;53.200;6.080;2022-12-26T13:29:40;10.73;;;1.00;;
76433;SDS011;65265;53.200;6.080;2022-12-26T13:34:33;9.73;;;0.98;;
76433;SDS011;65265;53.200;6.080;2022-12-26T13:39:33;5.00;;;0.85;;
76433;SDS011;65265;53.200;6.080;2022-12-26T13:44:31;8.38;;;1.10;;
76433;SDS011;65265;53.200;6.080;2022-12-26T13:49:29;7.55;;;1.15;;
76433;SDS011;65265;53.200;6.080;2022-12-26T13:54:25;9.80;;;1.25;;
76433;SDS011;65265;53.200;6.080;2022-12-26T14:04:20;6.28;;;0.85;;
76433;SDS011;65265;53.200;6.080;2022-12-26T14:09:47;8.43;;;1.17;;
76433;SDS011;65265;53.200;6.080;2022-12-26T14:14:52;6.30;;;1.05;;
76433;SDS011;65265;53.200;6.080;2022-12-26T14:20:00;6.32;;;0.57;;
76433;SDS011;65265;53.200;6.080;2022-12-26T14:25:04;8.55;;;0.88;;
76433;SDS011;65265;53.200;6.080;2022-12-26T14:30:05;10.73;;;0.90;;
76433;SDS011;65265;53.200;6.080;2022-12-26T14:40:14;8.27;;;1.70;;
76433;SDS011;65265;53.200;6.080;2022-12-26T14:50:39;14.55;;;1.70;;
76433;SDS011;65265;53.200;6.080;2022-12-26T14:55:38;7.15;;;1.05;;
76433;SDS011;65265;53.200;6.080;2022-12-26T15:00:38;8.45;;;1.60;;
76433;SDS011;65265;53.200;6.080;2022-12-26T15:05:31;6.97;;;1.45;;
76433;SDS011;65265;53.200;6.080;2022-12-26T15:10:46;12.27;;;1.75;;
76433;SDS011;65265;53.200;6.080;2022-12-26T15:15:59;18.63;;;3.80;;
76433;SDS011;65265;53.200;6.080;2022-12-26T15:21:06;13.75;;;2.85;;
76433;SDS011;65265;53.200;6.080;2022-12-26T15:26:37;14.85;;;4.15;;
76433;SDS011;65265;53.200;6.080;2022-12-26T15:31:49;11.80;;;1.35;;
76433;SDS011;65265;53.200;6.080;2022-12-26T15:36:48;8.88;;;1.17;;
76433;SDS011;65265;53.200;6.080;2022-12-26T15:41:47;5.65;;;0.70;;
76433;SDS011;65265;53.200;6.080;2022-12-26T15:46:48;9.02;;;1.77;;
76433;SDS011;65265;53.200;6.080;2022-12-26T15:51:51;3.55;;;1.25;;
76433;SDS011;65265;53.200;6.080;2022-12-26T15:56:57;7.28;;;0.98;;
76433;SDS011;65265;53.200;6.080;2022-12-26T16:02:01;5.32;;;1.13;;
76433;SDS011;65265;53.200;6.080;2022-12-26T16:07:05;4.78;;;1.08;;
76433;SDS011;65265;53.200;6.080;2022-12-26T16:12:00;7.40;;;0.82;;
76433;SDS011;65265;53.200;6.080;2022-12-26T16:21:44;8.25;;;1.50;;
76433;SDS011;65265;53.200;6.080;2022-12-26T16:26:59;5.15;;;1.27;;
76433;SDS011;65265;53.200;6.080;2022-12-26T16:32:00;5.03;;;0.85;;
76433;SDS011;65265;53.200;6.080;2022-12-26T16:36:52;8.70;;;2.03;;
76433;SDS011;65265;53.200;6.080;2022-12-26T16:41:55;6.82;;;1.30;;
76433;SDS011;65265;53.200;6.080;2022-12-26T16:46:51;6.47;;;0.80;;
76433;SDS011;65265;53.200;6.080;2022-12-26T16:51:44;5.25;;;1.00;;
76433;SDS011;65265;53.200;6.080;2022-12-26T16:56:36;6.07;;;0.95;;
76433;SDS011;65265;53.200;6.080;2022-12-26T17:01:28;9.48;;;0.63;;
76433;SDS011;65265;53.200;6.080;2022-12-26T17:06:23;5.18;;;0.85;;
76433;SDS011;65265;53.200;6.080;2022-12-26T17:11:24;7.65;;;1.08;;
76433;SDS011;65265;53.200;6.080;2022-12-26T17:16:20;6.70;;;1.27;;
76433;SDS011;65265;53.200;6.080;2022-12-26T17:21:14;2.72;;;0.43;;
76433;SDS011;65265;53.200;6.080;2022-12-26T17:26:23;11.10;;;1.13;;
76433;SDS011;65265;53.200;6.080;2022-12-26T17:31:29;7.32;;;1.23;;
76433;SDS011;65265;53.200;6.080;2022-12-26T17:36:26;4.80;;;0.63;;
76433;SDS011;65265;53.200;6.080;2022-12-26T17:41:22;7.60;;;0.60;;
76433;SDS011;65265;53.200;6.080;2022-12-26T17:46:14;8.15;;;1.77;;
76433;SDS011;65265;53.200;6.080;2022-12-26T17:51:09;7.13;;;0.82;;
76433;SDS011;65265;53.200;6.080;2022-12-26T17:56:10;6.70;;;0.80;;
76433;SDS011;65265;53.200;6.080;2022-12-26T18:01:04;11.93;;;1.48;;
76433;SDS011;65265;53.200;6.080;2022-12-26T18:05:55;5.60;;;1.13;;
76433;SDS011;65265;53.200;6.080;2022-12-26T18:10:47;6.63;;;1.73;;
76433;SDS011;65265;53.200;6.080;2022-12-26T18:15:41;5.93;;;1.48;;
76433;SDS011;65265;53.200;6.080;2022-12-26T18:20:35;8.98;;;1.20;;
76433;SDS011;65265;53.200;6.080;2022-12-26T18:25:26;7.97;;;1.77;;
76433;SDS011;65265;53.200;6.080;2022-12-26T18:30:18;5.05;;;1.45;;
76433;SDS011;65265;53.200;6.080;2022-12-26T18:35:16;11.80;;;1.15;;
76433;SDS011;65265;53.200;6.080;2022-12-26T18:40:14;6.13;;;1.15;;
76433;SDS011;65265;53.200;6.080;2022-12-26T18:45:14;2.60;;;1.13;;
76433;SDS011;65265;53.200;6.080;2022-12-26T18:50:07;9.65;;;1.63;;
76433;SDS011;65265;53.200;6.080;2022-12-26T18:55:02;8.85;;;1.35;;
76433;SDS011;65265;53.200;6.080;2022-12-26T18:59:54;5.43;;;1.15;;
76433;SDS011;65265;53.200;6.080;2022-12-26T19:04:46;2.95;;;0.95;;
76433;SDS011;65265;53.200;6.080;2022-12-26T19:09:41;8.13;;;0.88;;
76433;SDS011;65265;53.200;6.080;2022-12-26T19:14:34;6.30;;;0.88;;
76433;SDS011;65265;53.200;6.080;2022-12-26T19:19:26;5.38;;;1.23;;
76433;SDS011;65265;53.200;6.080;2022-12-26T19:24:18;6.43;;;0.95;;
76433;SDS011;65265;53.200;6.080;2022-12-26T19:29:10;4.25;;;0.50;;
76433;SDS011;65265;53.200;6.080;2022-12-26T19:34:05;7.55;;;1.30;;
76433;SDS011;65265;53.200;6.080;2022-12-26T19:38:56;9.05;;;1.33;;
76433;SDS011;65265;53.200;6.080;2022-12-26T19:43:53;4.45;;;1.58;;
76433;SDS011;65265;53.200;6.080;2022-12-26T19:48:45;7.85;;;1.50;;
76433;SDS011;65265;53.200;6.080;2022-12-26T19:53:38;5.05;;;1.40;;
76433;SDS011;65265;53.200;6.080;2022-12-26T19:58:30;11.05;;;1.33;;
76433;SDS011;65265;53.200;6.080;2022-12-26T20:03:21;3.45;;;0.77;;
76433;SDS011;65265;53.200;6.080;2022-12-26T20:08:13;6.22;;;1.00;;
76433;SDS011;65265;53.200;6.080;2022-12-26T20:13:06;4.72;;;0.80;;
76433;SDS011;65265;53.200;6.080;2022-12-26T20:17:57;4.30;;;1.52;;
76433;SDS011;65265;53.200;6.080;2022-12-26T20:22:49;2.35;;;0.82;;
76433;SDS011;65265;53.200;6.080;2022-12-26T20:27:40;4.18;;;0.80;;
76433;SDS011;65265;53.200;6.080;2022-12-26T20:32:33;5.85;;;1.40;;
76433;SDS011;65265;53.200;6.080;2022-12-26T20:37:27;5.00;;;1.08;;
76433;SDS011;65265;53.200;6.080;2022-12-26T20:42:21;7.63;;;1.10;;
76433;SDS011;65265;53.200;6.080;2022-12-26T20:47:14;2.22;;;0.40;;
76433;SDS011;65265;53.200;6.080;2022-12-26T20:52:07;3.92;;;0.40;;
76433;SDS011;65265;53.200;6.080;2022-12-26T20:56:59;3.80;;;0.70;;
76433;SDS011;65265;53.200;6.080;2022-12-26T21:01:51;4.43;;;0.88;;
76433;SDS011;65265;53.200;6.080;2022-12-26T21:06:43;2.78;;;0.50;;
76433;SDS011;65265;53.200;6.080;2022-12-26T21:11:38;3.90;;;1.80;;
76433;SDS011;65265;53.200;6.080;2022-12-26T21:16:32;5.22;;;1.42;;
76433;SDS011;65265;53.200;6.080;2022-12-26T21:21:25;1.98;;;1.73;;
76433;SDS011;65265;53.200;6.080;2022-12-26T21:26:18;4.20;;;0.65;;
76433;SDS011;65265;53.200;6.080;2022-12-26T21:31:11;4.28;;;0.70;;
76433;SDS011;65265;53.200;6.080;2022-12-26T21:36:06;9.43;;;1.15;;
76433;SDS011;65265;53.200;6.080;2022-12-26T21:40:59;6.00;;;1.27;;
76433;SDS011;65265;53.200;6.080;2022-12-26T21:45:50;5.65;;;0.63;;
76433;SDS011;65265;53.200;6.080;2022-12-26T21:50:44;5.57;;;1.20;;
76433;SDS011;65265;53.200;6.080;2022-12-26T21:55:35;8.07;;;1.67;;
76433;SDS011;65265;53.200;6.080;2022-12-26T22:00:27;6.68;;;0.65;;
76433;SDS011;65265;53.200;6.080;2022-12-26T22:05:21;4.43;;;0.57;;
76433;SDS011;65265;53.200;6.080;2022-12-26T22:10:16;8.30;;;0.88;;
76433;SDS011;65265;53.200;6.080;2022-12-26T22:15:21;4.57;;;0.75;;
76433;SDS011;65265;53.200;6.080;2022-12-26T22:20:30;4.22;;;0.90;;
76433;SDS011;65265;53.200;6.080;2022-12-26T22:25:24;4.15;;;0.47;;
76433;SDS011;65265;53.200;6.080;2022-12-26T22:30:16;5.65;;;1.15;;
76433;SDS011;65265;53.200;6.080;2022-12-26T22:35:07;2.78;;;0.47;;
76433;SDS011;65265;53.200;6.080;2022-12-26T22:39:59;8.40;;;0.93;;
76433;SDS011;65265;53.200;6.080;2022-12-26T22:44:52;5.43;;;1.10;;
76433;SDS011;65265;53.200;6.080;2022-12-26T22:49:43;6.35;;;1.00;;
76433;SDS011;65265;53.200;6.080;2022-12-26T22:54:34;2.85;;;1.10;;
76433;SDS011;65265;53.200;6.080;2022-12-26T22:59:26;4.63;;;1.00;;
76433;SDS011;65265;53.200;6.080;2022-12-26T23:04:19;4.55;;;0.55;;
76433;SDS011;65265;53.200;6.080;2022-12-26T23:09:12;2.55;;;0.70;;
76433;SDS011;65265;53.200;6.080;2022-12-26T23:14:05;4.57;;;2.45;;
76433;SDS011;65265;53.200;6.080;2022-12-26T23:18:58;9.25;;;0.60;;
76433;SDS011;65265;53.200;6.080;2022-12-26T23:24:13;5.20;;;1.20;;
76433;SDS011;65265;53.200;6.080;2022-12-26T23:29:06;5.80;;;1.38;;
76433;SDS011;65265;53.200;6.080;2022-12-26T23:34:18;3.75;;;0.75;;
76433;SDS011;65265;53.200;6.080;2022-12-26T23:39:09;3.65;;;1.20;;
76433;SDS011;65265;53.200;6.080;2022-12-26T23:44:02;4.28;;;0.75;;
76433;SDS011;65265;53.200;6.080;2022-12-26T23:48:55;3.95;;;0.65;;
76433;SDS011;65265;53.200;6.080;2022-12-26T23:53:46;7.70;;;1.23;;
76433;SDS011;65265;53.200;6.080;2022-12-26T23:58:37;3.30;;;0.93;;
